< Typhoon 195823 1958 Season Typhoon 195825 >
Typhoon 195824 (NO-NAME)
General InformationTrack Information on Google Maps || Disaster Info.ResourceGoogle EarthGE AnimationAtom FeedGeoJSON
Detalied Best Track (Time Zone = UTC)
Year Month Day Hour Lat. Long. Pressure (hPa) Wind (kt) Class Image Chart
1958 9 24 12 15.0 118.0 1004 0 2 -- Chart
1958 9 24 18 15.2 119.3 1004 0 2 -- Chart
1958 9 25 00 15.8 119.3 1004 0 2 -- Chart
1958 9 25 06 15.8 118.5 1002 0 2 -- Chart
1958 9 25 12 15.6 118.0 1002 0 2 -- Chart
1958 9 25 18 15.4 117.7 1002 0 2 -- Chart
1958 9 26 00 15.4 117.3 1006 0 2 -- Chart
1958 9 26 06 15.5 117.0 1004 0 2 -- Chart
1958 9 26 12 16.0 116.8 1005 0 2 -- Chart
1958 9 26 18 16.4 116.7 1004 0 2 -- Chart
1958 9 27 00 17.2 116.4 1005 0 2 -- Chart
1958 9 27 06 17.8 116.0 1004 0 2 -- Chart
1958 9 27 12 18.4 115.8 1004 0 2 -- Chart
1958 9 27 18 18.8 115.4 1002 0 2 -- Chart
1958 9 28 00 19.0 115.3 1004 0 2 -- Chart
1958 9 28 06 19.4 115.2 1002 0 9 -- Chart
1958 9 28 12 19.6 115.0 1000 0 9 -- Chart
1958 9 28 18 19.7 114.7 1002 0 9 -- Chart
1958 9 29 00 19.7 113.8 1002 0 9 -- Chart
1958 9 29 06 19.8 113.1 1006 0 2 -- Chart
1958 9 29 12 20.0 112.6 1006 0 2 -- Chart
Japan Meteorological Agency Best Track Data | Correction Date : 1989-06-01
< Typhoon 195823 1958 Season Typhoon 195825 >

Help